createdAt,value
2023-03-17T00:04:48.715Z,87.70
2023-03-17T00:15:10.864Z,87.70
2023-03-17T00:25:34.445Z,88.00
2023-03-17T00:35:57.460Z,87.60
2023-03-17T00:46:29.125Z,86.60
2023-03-17T00:56:52.685Z,86.30
2023-03-17T01:07:14.234Z,85.70
2023-03-17T01:17:35.706Z,85.50
2023-03-17T01:27:59.342Z,85.50
2023-03-17T01:38:20.507Z,85.20
2023-03-17T01:48:56.654Z,85.20
2023-03-17T01:59:28.682Z,85.10
2023-03-17T02:09:52.566Z,84.90
2023-03-17T02:20:17.407Z,84.80
2023-03-17T02:30:38.785Z,84.60
2023-03-17T02:41:00.215Z,84.90
2023-03-17T02:51:21.350Z,84.50
2023-03-17T03:01:42.754Z,84.40
2023-03-17T03:12:04.612Z,84.70
2023-03-17T03:22:25.965Z,84.30
2023-03-17T03:32:53.481Z,84.20
2023-03-17T03:43:23.066Z,84.00
2023-03-17T03:53:45.203Z,83.90
2023-03-17T04:04:06.206Z,83.80
2023-03-17T04:14:08.953Z,83.30
2023-03-17T04:24:30.635Z,83.70
2023-03-17T04:34:52.060Z,83.80
2023-03-17T04:45:15.559Z,83.90
2023-03-17T04:55:36.692Z,84.00
2023-03-17T05:05:58.683Z,84.00
2023-03-17T05:16:20.612Z,84.40
2023-03-17T05:26:42.254Z,84.40
2023-03-17T05:37:03.884Z,84.90
2023-03-17T05:47:25.739Z,85.80
2023-03-17T05:57:47.422Z,86.60
2023-03-17T06:08:08.911Z,87.60
2023-03-17T06:18:30.098Z,87.10
2023-03-17T06:28:51.160Z,87.70
2023-03-17T06:39:13.983Z,87.00
2023-03-17T06:49:35.524Z,86.90
2023-03-17T06:59:57.066Z,87.20
2023-03-17T07:10:19.245Z,86.30
2023-03-17T07:20:41.482Z,85.50
2023-03-17T07:31:05.862Z,85.60
2023-03-17T07:41:28.458Z,85.20
2023-03-17T07:51:50.146Z,84.80
2023-03-17T08:02:16.404Z,84.70
2023-03-17T08:12:37.824Z,84.70
2023-03-17T08:22:58.962Z,84.30
2023-03-17T08:33:22.198Z,84.50
2023-03-17T08:43:44.509Z,84.10
2023-03-17T08:54:06.963Z,84.20
2023-03-17T09:04:28.789Z,84.40
2023-03-17T09:14:42.656Z,84.40
2023-03-17T09:25:04.876Z,84.60
2023-03-17T09:35:28.179Z,84.40
2023-03-17T09:45:49.419Z,84.00
2023-03-17T09:56:17.041Z,84.20
2023-03-17T10:06:43.598Z,83.90
2023-03-17T10:17:22.717Z,84.20
2023-03-17T10:28:26.173Z,83.40
2023-03-17T10:38:54.247Z,83.50
2023-03-17T10:49:18.179Z,83.20
2023-03-17T10:59:49.646Z,82.80
2023-03-17T11:10:36.982Z,83.30
2023-03-17T11:21:46.797Z,82.60
2023-03-17T11:32:33.424Z,82.70
2023-03-17T11:43:22.361Z,83.00
2023-03-17T11:54:19.221Z,82.80
2023-03-17T12:04:57.312Z,82.90
2023-03-17T12:15:41.856Z,83.00
2023-03-17T12:26:12.913Z,83.20
2023-03-17T12:36:38.128Z,83.80
2023-03-17T12:47:06.492Z,83.60
2023-03-17T12:57:43.781Z,83.30
2023-03-17T13:08:10.814Z,83.40
2023-03-17T13:18:35.148Z,83.10
2023-03-17T13:29:03.534Z,83.00
2023-03-17T13:39:41.921Z,83.20
2023-03-17T13:50:13.341Z,83.50
2023-03-17T14:00:39.570Z,83.60
2023-03-17T14:11:08.971Z,83.80
2023-03-17T14:21:32.779Z,83.40
2023-03-17T14:32:05.870Z,83.80
2023-03-17T14:42:31.891Z,84.00
2023-03-17T14:52:53.689Z,84.00
2023-03-17T15:03:25.268Z,83.90
2023-03-17T15:13:47.632Z,84.20
2023-03-17T15:24:40.509Z,83.90
2023-03-17T15:35:01.745Z,84.30
2023-03-17T15:45:23.035Z,84.50
2023-03-17T15:55:44.759Z,84.60
2023-03-17T16:06:16.251Z,84.60
2023-03-17T16:16:41.295Z,84.70
2023-03-17T16:27:02.903Z,84.80
2023-03-17T16:37:23.859Z,85.00
2023-03-17T16:47:45.395Z,85.10
2023-03-17T16:58:33.058Z,85.10
2023-03-17T17:08:54.474Z,84.90
2023-03-17T17:19:17.164Z,84.70
2023-03-17T17:29:38.557Z,84.70
2023-03-17T17:40:00.266Z,84.60
2023-03-17T17:50:28.283Z,84.50
2023-03-17T18:00:50.751Z,84.40
2023-03-17T18:11:12.391Z,84.40
2023-03-17T18:21:36.454Z,84.20
2023-03-17T18:31:58.470Z,84.20
2023-03-17T18:42:19.846Z,84.20
2023-03-17T18:52:42.498Z,84.20
2023-03-17T19:03:03.876Z,84.30
2023-03-17T19:13:25.365Z,84.30
2023-03-17T19:23:47.150Z,84.40
2023-03-17T19:34:11.350Z,84.50
2023-03-17T19:44:33.851Z,84.50
2023-03-17T19:54:54.907Z,84.50
2023-03-17T20:05:16.040Z,84.50
2023-03-17T20:15:38.394Z,84.60
2023-03-17T20:26:01.470Z,84.40
2023-03-17T20:36:24.536Z,84.10
2023-03-17T20:46:46.230Z,84.30
2023-03-17T20:57:12.183Z,84.40
2023-03-17T21:07:33.858Z,84.40
2023-03-17T21:17:55.514Z,84.10
2023-03-17T21:28:17.286Z,84.20
2023-03-17T21:38:38.868Z,84.20
2023-03-17T21:49:00.538Z,84.20
2023-03-17T21:59:23.536Z,84.20
2023-03-17T22:09:45.059Z,84.20
2023-03-17T22:20:07.984Z,84.40
2023-03-17T22:30:30.468Z,84.20
2023-03-17T22:41:06.349Z,83.70
2023-03-17T22:51:28.434Z,83.30
2023-03-17T23:01:49.607Z,83.30
2023-03-17T23:12:12.607Z,83.30
2023-03-17T23:22:34.675Z,83.70
2023-03-17T23:32:57.183Z,83.80
2023-03-17T23:43:19.512Z,83.80
2023-03-17T23:53:41.798Z,84.00
